sensor_id;sensor_type;location;lat;lon;timestamp;P1;durP1;ratioP1;P2;durP2;ratioP2
52992;SDS011;38875;52.216;21.040;2022-08-21T00:02:26;13.13;;;4.95;;
52992;SDS011;38875;52.216;21.040;2022-08-21T00:04:53;8.43;;;4.90;;
52992;SDS011;38875;52.216;21.040;2022-08-21T00:07:19;9.77;;;5.43;;
52992;SDS011;38875;52.216;21.040;2022-08-21T00:09:46;9.55;;;4.80;;
52992;SDS011;38875;52.216;21.040;2022-08-21T00:12:13;9.68;;;5.10;;
52992;SDS011;38875;52.216;21.040;2022-08-21T00:14:39;11.98;;;4.93;;
52992;SDS011;38875;52.216;21.040;2022-08-21T00:17:05;11.75;;;5.50;;
52992;SDS011;38875;52.216;21.040;2022-08-21T00:19:32;9.15;;;5.30;;
52992;SDS011;38875;52.216;21.040;2022-08-21T00:21:58;12.13;;;5.53;;
52992;SDS011;38875;52.216;21.040;2022-08-21T00:24:25;11.55;;;5.50;;
52992;SDS011;38875;52.216;21.040;2022-08-21T00:26:51;11.80;;;5.53;;
52992;SDS011;38875;52.216;21.040;2022-08-21T00:29:17;10.82;;;5.68;;
52992;SDS011;38875;52.216;21.040;2022-08-21T00:31:44;7.78;;;4.85;;
52992;SDS011;38875;52.216;21.040;2022-08-21T00:34:10;12.15;;;5.88;;
52992;SDS011;38875;52.216;21.040;2022-08-21T00:36:38;9.70;;;4.85;;
52992;SDS011;38875;52.216;21.040;2022-08-21T00:39:05;10.55;;;4.90;;
52992;SDS011;38875;52.216;21.040;2022-08-21T00:41:33;12.27;;;5.40;;
52992;SDS011;38875;52.216;21.040;2022-08-21T00:44:01;10.82;;;5.18;;
52992;SDS011;38875;52.216;21.040;2022-08-21T00:46:27;7.88;;;4.97;;
52992;SDS011;38875;52.216;21.040;2022-08-21T00:48:53;8.00;;;5.18;;
52992;SDS011;38875;52.216;21.040;2022-08-21T00:51:21;9.30;;;5.05;;
52992;SDS011;38875;52.216;21.040;2022-08-21T00:53:53;12.50;;;5.30;;
52992;SDS011;38875;52.216;21.040;2022-08-21T00:56:23;9.43;;;5.28;;
52992;SDS011;38875;52.216;21.040;2022-08-21T00:58:49;10.45;;;5.25;;
52992;SDS011;38875;52.216;21.040;2022-08-21T01:01:17;9.45;;;5.10;;
52992;SDS011;38875;52.216;21.040;2022-08-21T01:03:43;8.85;;;5.18;;
52992;SDS011;38875;52.216;21.040;2022-08-21T01:06:10;9.15;;;4.82;;
52992;SDS011;38875;52.216;21.040;2022-08-21T01:08:36;12.52;;;5.40;;
52992;SDS011;38875;52.216;21.040;2022-08-21T01:11:02;11.13;;;5.05;;
52992;SDS011;38875;52.216;21.040;2022-08-21T01:13:30;8.80;;;5.00;;
52992;SDS011;38875;52.216;21.040;2022-08-21T01:15:59;10.05;;;4.93;;
52992;SDS011;38875;52.216;21.040;2022-08-21T01:18:28;10.85;;;5.72;;
52992;SDS011;38875;52.216;21.040;2022-08-21T01:21:01;9.95;;;5.40;;
52992;SDS011;38875;52.216;21.040;2022-08-21T01:23:36;9.63;;;5.47;;
52992;SDS011;38875;52.216;21.040;2022-08-21T01:26:03;11.38;;;5.20;;
52992;SDS011;38875;52.216;21.040;2022-08-21T01:28:31;11.52;;;5.22;;
52992;SDS011;38875;52.216;21.040;2022-08-21T01:31:02;11.02;;;5.20;;
52992;SDS011;38875;52.216;21.040;2022-08-21T01:33:30;10.30;;;5.25;;
52992;SDS011;38875;52.216;21.040;2022-08-21T01:35:55;12.13;;;4.65;;
52992;SDS011;38875;52.216;21.040;2022-08-21T01:38:21;8.02;;;5.35;;
52992;SDS011;38875;52.216;21.040;2022-08-21T01:40:48;8.65;;;5.03;;
52992;SDS011;38875;52.216;21.040;2022-08-21T01:43:13;10.10;;;5.65;;
52992;SDS011;38875;52.216;21.040;2022-08-21T01:45:40;9.73;;;5.28;;
52992;SDS011;38875;52.216;21.040;2022-08-21T01:48:07;10.35;;;5.03;;
52992;SDS011;38875;52.216;21.040;2022-08-21T01:50:32;11.35;;;5.22;;
52992;SDS011;38875;52.216;21.040;2022-08-21T01:52:58;8.15;;;5.20;;
52992;SDS011;38875;52.216;21.040;2022-08-21T01:55:24;14.35;;;6.65;;
52992;SDS011;38875;52.216;21.040;2022-08-21T01:57:50;9.43;;;5.60;;
52992;SDS011;38875;52.216;21.040;2022-08-21T02:00:17;10.73;;;5.85;;
52992;SDS011;38875;52.216;21.040;2022-08-21T02:02:44;9.35;;;4.70;;
52992;SDS011;38875;52.216;21.040;2022-08-21T02:05:10;11.10;;;4.93;;
52992;SDS011;38875;52.216;21.040;2022-08-21T02:07:46;10.18;;;5.18;;
52992;SDS011;38875;52.216;21.040;2022-08-21T02:10:15;9.00;;;4.93;;
52992;SDS011;38875;52.216;21.040;2022-08-21T02:12:45;7.63;;;4.60;;
52992;SDS011;38875;52.216;21.040;2022-08-21T02:15:11;9.15;;;5.28;;
52992;SDS011;38875;52.216;21.040;2022-08-21T02:17:48;8.35;;;4.80;;
52992;SDS011;38875;52.216;21.040;2022-08-21T02:20:17;9.50;;;5.68;;
52992;SDS011;38875;52.216;21.040;2022-08-21T02:22:54;8.88;;;5.20;;
52992;SDS011;38875;52.216;21.040;2022-08-21T02:25:22;12.02;;;5.20;;
52992;SDS011;38875;52.216;21.040;2022-08-21T02:27:49;10.45;;;5.18;;
52992;SDS011;38875;52.216;21.040;2022-08-21T02:30:29;12.05;;;5.85;;
52992;SDS011;38875;52.216;21.040;2022-08-21T02:32:57;11.05;;;5.57;;
52992;SDS011;38875;52.216;21.040;2022-08-21T02:35:24;8.48;;;5.13;;
52992;SDS011;38875;52.216;21.040;2022-08-21T02:37:52;10.75;;;5.57;;
52992;SDS011;38875;52.216;21.040;2022-08-21T02:40:22;10.18;;;5.43;;
52992;SDS011;38875;52.216;21.040;2022-08-21T02:42:51;9.27;;;5.22;;
52992;SDS011;38875;52.216;21.040;2022-08-21T02:45:18;11.48;;;5.20;;
52992;SDS011;38875;52.216;21.040;2022-08-21T02:47:48;11.00;;;6.05;;
52992;SDS011;38875;52.216;21.040;2022-08-21T02:50:17;9.70;;;5.63;;
52992;SDS011;38875;52.216;21.040;2022-08-21T02:52:45;7.75;;;5.35;;
52992;SDS011;38875;52.216;21.040;2022-08-21T02:55:11;8.93;;;5.55;;
52992;SDS011;38875;52.216;21.040;2022-08-21T02:57:36;10.13;;;5.28;;
52992;SDS011;38875;52.216;21.040;2022-08-21T03:00:03;9.70;;;5.32;;
52992;SDS011;38875;52.216;21.040;2022-08-21T03:02:30;13.15;;;5.63;;
52992;SDS011;38875;52.216;21.040;2022-08-21T03:04:56;11.40;;;5.75;;
52992;SDS011;38875;52.216;21.040;2022-08-21T03:07:22;11.52;;;6.50;;
52992;SDS011;38875;52.216;21.040;2022-08-21T03:09:48;11.05;;;5.95;;
52992;SDS011;38875;52.216;21.040;2022-08-21T03:12:13;11.43;;;5.68;;
52992;SDS011;38875;52.216;21.040;2022-08-21T03:14:39;9.18;;;5.82;;
52992;SDS011;38875;52.216;21.040;2022-08-21T03:17:05;10.07;;;5.72;;
52992;SDS011;38875;52.216;21.040;2022-08-21T03:19:32;9.45;;;5.90;;
52992;SDS011;38875;52.216;21.040;2022-08-21T03:22:00;8.40;;;5.25;;
52992;SDS011;38875;52.216;21.040;2022-08-21T03:24:26;12.43;;;5.97;;
52992;SDS011;38875;52.216;21.040;2022-08-21T03:26:51;9.57;;;5.70;;
52992;SDS011;38875;52.216;21.040;2022-08-21T03:29:17;11.05;;;5.60;;
52992;SDS011;38875;52.216;21.040;2022-08-21T03:31:43;11.73;;;6.40;;
52992;SDS011;38875;52.216;21.040;2022-08-21T03:34:09;9.95;;;6.20;;
52992;SDS011;38875;52.216;21.040;2022-08-21T03:36:35;10.65;;;5.45;;
52992;SDS011;38875;52.216;21.040;2022-08-21T03:39:01;12.32;;;6.03;;
52992;SDS011;38875;52.216;21.040;2022-08-21T03:41:27;8.48;;;5.47;;
52992;SDS011;38875;52.216;21.040;2022-08-21T03:43:52;9.35;;;5.70;;
52992;SDS011;38875;52.216;21.040;2022-08-21T03:46:18;10.80;;;6.43;;
52992;SDS011;38875;52.216;21.040;2022-08-21T03:48:44;12.32;;;6.30;;
52992;SDS011;38875;52.216;21.040;2022-08-21T03:51:10;8.40;;;5.78;;
52992;SDS011;38875;52.216;21.040;2022-08-21T03:53:36;11.23;;;6.15;;
52992;SDS011;38875;52.216;21.040;2022-08-21T03:56:02;11.10;;;6.03;;
52992;SDS011;38875;52.216;21.040;2022-08-21T03:58:29;13.20;;;5.72;;
52992;SDS011;38875;52.216;21.040;2022-08-21T04:00:55;11.73;;;6.40;;
52992;SDS011;38875;52.216;21.040;2022-08-21T04:03:23;13.70;;;6.10;;
52992;SDS011;38875;52.216;21.040;2022-08-21T04:05:51;8.82;;;5.60;;
52992;SDS011;38875;52.216;21.040;2022-08-21T04:08:16;10.25;;;5.55;;
52992;SDS011;38875;52.216;21.040;2022-08-21T04:10:44;8.73;;;6.00;;
52992;SDS011;38875;52.216;21.040;2022-08-21T04:13:12;10.13;;;5.97;;
52992;SDS011;38875;52.216;21.040;2022-08-21T04:15:40;10.23;;;5.97;;
52992;SDS011;38875;52.216;21.040;2022-08-21T04:18:06;10.75;;;6.00;;
52992;SDS011;38875;52.216;21.040;2022-08-21T04:20:32;10.25;;;5.65;;
52992;SDS011;38875;52.216;21.040;2022-08-21T04:22:58;9.98;;;5.70;;
52992;SDS011;38875;52.216;21.040;2022-08-21T04:25:24;7.90;;;5.32;;
52992;SDS011;38875;52.216;21.040;2022-08-21T04:27:53;9.57;;;5.68;;
52992;SDS011;38875;52.216;21.040;2022-08-21T04:30:18;15.18;;;6.28;;
52992;SDS011;38875;52.216;21.040;2022-08-21T04:32:45;9.13;;;5.70;;
52992;SDS011;38875;52.216;21.040;2022-08-21T04:35:14;10.23;;;5.65;;
52992;SDS011;38875;52.216;21.040;2022-08-21T04:37:41;8.93;;;5.30;;
52992;SDS011;38875;52.216;21.040;2022-08-21T04:40:08;8.88;;;5.68;;
52992;SDS011;38875;52.216;21.040;2022-08-21T04:42:41;8.75;;;5.63;;
52992;SDS011;38875;52.216;21.040;2022-08-21T04:45:27;8.43;;;5.28;;
52992;SDS011;38875;52.216;21.040;2022-08-21T04:47:57;9.25;;;5.05;;
52992;SDS011;38875;52.216;21.040;2022-08-21T04:50:29;10.40;;;5.10;;
52992;SDS011;38875;52.216;21.040;2022-08-21T04:52:55;9.95;;;5.35;;
52992;SDS011;38875;52.216;21.040;2022-08-21T04:55:21;9.90;;;5.60;;
52992;SDS011;38875;52.216;21.040;2022-08-21T04:57:49;8.90;;;5.28;;
52992;SDS011;38875;52.216;21.040;2022-08-21T05:00:19;9.10;;;5.20;;
52992;SDS011;38875;52.216;21.040;2022-08-21T05:02:45;8.88;;;5.32;;
52992;SDS011;38875;52.216;21.040;2022-08-21T05:05:13;9.90;;;4.88;;
52992;SDS011;38875;52.216;21.040;2022-08-21T05:07:39;8.48;;;4.68;;
52992;SDS011;38875;52.216;21.040;2022-08-21T05:10:05;9.50;;;5.32;;
52992;SDS011;38875;52.216;21.040;2022-08-21T05:12:33;7.63;;;4.78;;
52992;SDS011;38875;52.216;21.040;2022-08-21T05:15:00;11.32;;;5.25;;
52992;SDS011;38875;52.216;21.040;2022-08-21T05:17:26;9.70;;;5.35;;
52992;SDS011;38875;52.216;21.040;2022-08-21T05:19:52;8.25;;;5.40;;
52992;SDS011;38875;52.216;21.040;2022-08-21T05:22:21;8.63;;;4.85;;
52992;SDS011;38875;52.216;21.040;2022-08-21T05:24:47;11.05;;;4.57;;
52992;SDS011;38875;52.216;21.040;2022-08-21T05:27:13;9.70;;;4.90;;
52992;SDS011;38875;52.216;21.040;2022-08-21T05:29:39;11.02;;;5.30;;
52992;SDS011;38875;52.216;21.040;2022-08-21T05:32:11;8.20;;;4.75;;
52992;SDS011;38875;52.216;21.040;2022-08-21T05:34:38;11.50;;;4.82;;
52992;SDS011;38875;52.216;21.040;2022-08-21T05:37:04;9.35;;;4.97;;
52992;SDS011;38875;52.216;21.040;2022-08-21T05:39:30;10.98;;;5.53;;
52992;SDS011;38875;52.216;21.040;2022-08-21T05:41:56;9.10;;;5.22;;
52992;SDS011;38875;52.216;21.040;2022-08-21T05:44:22;8.95;;;5.05;;
52992;SDS011;38875;52.216;21.040;2022-08-21T05:46:48;7.88;;;5.45;;
52992;SDS011;38875;52.216;21.040;2022-08-21T05:49:14;12.02;;;5.60;;
52992;SDS011;38875;52.216;21.040;2022-08-21T05:51:40;11.05;;;5.43;;
52992;SDS011;38875;52.216;21.040;2022-08-21T05:54:06;9.40;;;5.05;;
52992;SDS011;38875;52.216;21.040;2022-08-21T05:56:33;8.00;;;5.20;;
52992;SDS011;38875;52.216;21.040;2022-08-21T05:58:58;9.68;;;5.50;;
52992;SDS011;38875;52.216;21.040;2022-08-21T06:01:25;8.45;;;4.72;;
52992;SDS011;38875;52.216;21.040;2022-08-21T06:03:50;7.88;;;4.78;;
52992;SDS011;38875;52.216;21.040;2022-08-21T06:06:16;7.88;;;4.88;;
52992;SDS011;38875;52.216;21.040;2022-08-21T06:08:42;6.82;;;4.50;;
52992;SDS011;38875;52.216;21.040;2022-08-21T06:11:08;7.95;;;4.57;;
52992;SDS011;38875;52.216;21.040;2022-08-21T06:13:34;8.75;;;5.60;;
52992;SDS011;38875;52.216;21.040;2022-08-21T06:16:06;8.05;;;4.78;;
52992;SDS011;38875;52.216;21.040;2022-08-21T06:18:38;9.63;;;4.85;;
52992;SDS011;38875;52.216;21.040;2022-08-21T06:21:04;8.75;;;4.75;;
52992;SDS011;38875;52.216;21.040;2022-08-21T06:23:30;7.18;;;4.80;;
52992;SDS011;38875;52.216;21.040;2022-08-21T06:25:56;9.02;;;5.20;;
52992;SDS011;38875;52.216;21.040;2022-08-21T06:28:22;6.32;;;4.47;;
52992;SDS011;38875;52.216;21.040;2022-08-21T06:30:48;7.60;;;5.43;;
52992;SDS011;38875;52.216;21.040;2022-08-21T06:33:14;9.30;;;5.00;;
52992;SDS011;38875;52.216;21.040;2022-08-21T06:35:40;9.90;;;4.72;;
52992;SDS011;38875;52.216;21.040;2022-08-21T06:38:05;9.23;;;4.50;;
52992;SDS011;38875;52.216;21.040;2022-08-21T06:40:31;8.23;;;4.90;;
52992;SDS011;38875;52.216;21.040;2022-08-21T06:42:58;7.50;;;4.63;;
52992;SDS011;38875;52.216;21.040;2022-08-21T06:45:30;8.27;;;4.55;;
52992;SDS011;38875;52.216;21.040;2022-08-21T06:47:56;13.40;;;4.80;;
52992;SDS011;38875;52.216;21.040;2022-08-21T06:50:22;7.63;;;4.63;;
52992;SDS011;38875;52.216;21.040;2022-08-21T06:52:47;12.00;;;4.97;;
52992;SDS011;38875;52.216;21.040;2022-08-21T06:55:13;7.70;;;5.05;;
52992;SDS011;38875;52.216;21.040;2022-08-21T06:57:39;9.13;;;5.43;;
52992;SDS011;38875;52.216;21.040;2022-08-21T07:00:05;11.60;;;5.05;;
52992;SDS011;38875;52.216;21.040;2022-08-21T07:02:32;9.68;;;4.93;;
52992;SDS011;38875;52.216;21.040;2022-08-21T07:04:59;10.93;;;4.97;;
52992;SDS011;38875;52.216;21.040;2022-08-21T07:07:27;9.70;;;5.20;;
52992;SDS011;38875;52.216;21.040;2022-08-21T07:09:53;10.90;;;4.60;;
52992;SDS011;38875;52.216;21.040;2022-08-21T07:12:19;9.02;;;5.20;;
52992;SDS011;38875;52.216;21.040;2022-08-21T07:14:45;8.88;;;4.65;;
52992;SDS011;38875;52.216;21.040;2022-08-21T07:17:12;9.05;;;5.10;;
52992;SDS011;38875;52.216;21.040;2022-08-21T07:19:38;9.43;;;5.18;;
52992;SDS011;38875;52.216;21.040;2022-08-21T07:22:04;8.52;;;4.78;;
52992;SDS011;38875;52.216;21.040;2022-08-21T07:24:30;8.38;;;4.88;;
52992;SDS011;38875;52.216;21.040;2022-08-21T07:26:56;7.82;;;4.30;;
52992;SDS011;38875;52.216;21.040;2022-08-21T07:29:22;9.32;;;4.75;;
52992;SDS011;38875;52.216;21.040;2022-08-21T07:31:47;6.85;;;4.28;;
52992;SDS011;38875;52.216;21.040;2022-08-21T07:34:14;6.82;;;4.25;;
52992;SDS011;38875;52.216;21.040;2022-08-21T07:36:40;6.18;;;4.10;;
52992;SDS011;38875;52.216;21.040;2022-08-21T07:39:06;7.00;;;4.80;;
52992;SDS011;38875;52.216;21.040;2022-08-21T07:41:33;6.53;;;4.30;;
52992;SDS011;38875;52.216;21.040;2022-08-21T07:43:59;6.65;;;4.10;;
52992;SDS011;38875;52.216;21.040;2022-08-21T07:46:26;9.50;;;4.05;;
52992;SDS011;38875;52.216;21.040;2022-08-21T07:48:52;9.15;;;4.07;;
52992;SDS011;38875;52.216;21.040;2022-08-21T07:51:21;6.65;;;4.25;;
52992;SDS011;38875;52.216;21.040;2022-08-21T07:53:51;7.95;;;4.20;;
52992;SDS011;38875;52.216;21.040;2022-08-21T07:56:19;9.95;;;4.97;;
52992;SDS011;38875;52.216;21.040;2022-08-21T07:58:46;7.63;;;4.15;;
52992;SDS011;38875;52.216;21.040;2022-08-21T08:01:12;9.27;;;4.43;;
52992;SDS011;38875;52.216;21.040;2022-08-21T08:03:39;6.78;;;4.28;;
52992;SDS011;38875;52.216;21.040;2022-08-21T08:06:05;7.78;;;4.53;;
52992;SDS011;38875;52.216;21.040;2022-08-21T08:08:33;8.90;;;5.07;;
52992;SDS011;38875;52.216;21.040;2022-08-21T08:11:02;6.63;;;4.40;;
52992;SDS011;38875;52.216;21.040;2022-08-21T08:13:27;7.43;;;4.55;;
52992;SDS011;38875;52.216;21.040;2022-08-21T08:15:53;6.70;;;4.65;;
52992;SDS011;38875;52.216;21.040;2022-08-21T08:18:19;6.45;;;4.45;;
52992;SDS011;38875;52.216;21.040;2022-08-21T08:20:45;8.70;;;4.50;;
52992;SDS011;38875;52.216;21.040;2022-08-21T08:23:12;8.10;;;4.50;;
52992;SDS011;38875;52.216;21.040;2022-08-21T08:25:39;8.52;;;4.55;;
52992;SDS011;38875;52.216;21.040;2022-08-21T08:28:06;8.50;;;4.50;;
52992;SDS011;38875;52.216;21.040;2022-08-21T08:30:32;7.70;;;4.80;;
52992;SDS011;38875;52.216;21.040;2022-08-21T08:32:59;7.25;;;4.60;;
52992;SDS011;38875;52.216;21.040;2022-08-21T08:35:25;7.03;;;4.28;;
52992;SDS011;38875;52.216;21.040;2022-08-21T08:37:51;7.30;;;4.30;;
52992;SDS011;38875;52.216;21.040;2022-08-21T08:40:24;8.75;;;4.53;;
52992;SDS011;38875;52.216;21.040;2022-08-21T08:42:58;10.10;;;4.53;;
52992;SDS011;38875;52.216;21.040;2022-08-21T08:45:25;7.53;;;4.30;;
52992;SDS011;38875;52.216;21.040;2022-08-21T08:47:52;9.32;;;3.90;;
52992;SDS011;38875;52.216;21.040;2022-08-21T08:50:25;8.60;;;4.25;;
52992;SDS011;38875;52.216;21.040;2022-08-21T08:52:53;10.18;;;4.43;;
52992;SDS011;38875;52.216;21.040;2022-08-21T08:55:30;8.20;;;4.05;;
52992;SDS011;38875;52.216;21.040;2022-08-21T08:57:57;7.00;;;3.95;;
52992;SDS011;38875;52.216;21.040;2022-08-21T09:00:24;5.68;;;3.97;;
52992;SDS011;38875;52.216;21.040;2022-08-21T09:02:55;8.82;;;4.82;;
52992;SDS011;38875;52.216;21.040;2022-08-21T09:10:50;6.47;;;3.60;;
52992;SDS011;38875;52.216;21.040;2022-08-21T09:16:04;6.40;;;3.10;;
52992;SDS011;38875;52.216;21.040;2022-08-21T09:19:23;5.68;;;3.20;;
52992;SDS011;38875;52.216;21.040;2022-08-21T09:27:08;7.65;;;3.67;;
52992;SDS011;38875;52.216;21.040;2022-08-21T09:29:40;5.90;;;3.05;;
52992;SDS011;38875;52.216;21.040;2022-08-21T09:32:15;6.20;;;3.23;;
52992;SDS011;38875;52.216;21.040;2022-08-21T09:34:54;8.18;;;3.95;;
52992;SDS011;38875;52.216;21.040;2022-08-21T09:37:22;8.15;;;3.10;;
52992;SDS011;38875;52.216;21.040;2022-08-21T09:39:49;5.00;;;3.33;;
52992;SDS011;38875;52.216;21.040;2022-08-21T09:42:21;5.57;;;3.35;;
52992;SDS011;38875;52.216;21.040;2022-08-21T09:44:51;5.88;;;3.60;;
52992;SDS011;38875;52.216;21.040;2022-08-21T09:47:43;6.80;;;3.55;;
52992;SDS011;38875;52.216;21.040;2022-08-21T09:50:17;9.82;;;3.55;;
52992;SDS011;38875;52.216;21.040;2022-08-21T09:52:52;6.05;;;3.20;;
52992;SDS011;38875;52.216;21.040;2022-08-21T09:58:15;6.65;;;3.28;;
52992;SDS011;38875;52.216;21.040;2022-08-21T10:00:41;6.78;;;3.60;;
52992;SDS011;38875;52.216;21.040;2022-08-21T10:03:08;6.13;;;3.47;;
52992;SDS011;38875;52.216;21.040;2022-08-21T10:05:34;5.20;;;3.25;;
52992;SDS011;38875;52.216;21.040;2022-08-21T10:08:00;6.00;;;3.20;;
52992;SDS011;38875;52.216;21.040;2022-08-21T10:10:28;4.68;;;3.20;;
52992;SDS011;38875;52.216;21.040;2022-08-21T10:18:22;7.97;;;3.38;;
52992;SDS011;38875;52.216;21.040;2022-08-21T10:29:03;6.38;;;3.20;;
52992;SDS011;38875;52.216;21.040;2022-08-21T10:31:37;6.18;;;3.33;;
52992;SDS011;38875;52.216;21.040;2022-08-21T10:37:20;7.28;;;3.60;;
52992;SDS011;38875;52.216;21.040;2022-08-21T10:42:38;4.65;;;3.13;;
52992;SDS011;38875;52.216;21.040;2022-08-21T10:45:31;6.47;;;3.45;;
52992;SDS011;38875;52.216;21.040;2022-08-21T10:48:43;6.00;;;3.50;;
52992;SDS011;38875;52.216;21.040;2022-08-21T10:56:44;7.75;;;2.97;;
52992;SDS011;38875;52.216;21.040;2022-08-21T11:01:48;5.78;;;2.97;;
52992;SDS011;38875;52.216;21.040;2022-08-21T11:07:00;4.50;;;3.10;;
52992;SDS011;38875;52.216;21.040;2022-08-21T11:09:58;5.35;;;3.35;;
52992;SDS011;38875;52.216;21.040;2022-08-21T11:12:49;4.60;;;2.60;;
52992;SDS011;38875;52.216;21.040;2022-08-21T11:18:32;6.07;;;3.08;;
52992;SDS011;38875;52.216;21.040;2022-08-21T11:21:05;6.50;;;2.90;;
52992;SDS011;38875;52.216;21.040;2022-08-21T11:23:48;6.47;;;2.90;;
52992;SDS011;38875;52.216;21.040;2022-08-21T11:26:30;6.28;;;2.88;;
52992;SDS011;38875;52.216;21.040;2022-08-21T11:29:09;7.65;;;2.80;;
52992;SDS011;38875;52.216;21.040;2022-08-21T11:34:45;4.47;;;2.80;;
52992;SDS011;38875;52.216;21.040;2022-08-21T11:40:18;6.70;;;2.80;;
52992;SDS011;38875;52.216;21.040;2022-08-21T11:48:44;6.10;;;2.75;;
52992;SDS011;38875;52.216;21.040;2022-08-21T11:51:13;8.13;;;3.00;;
52992;SDS011;38875;52.216;21.040;2022-08-21T11:53:56;6.28;;;2.97;;
52992;SDS011;38875;52.216;21.040;2022-08-21T11:56:29;5.13;;;3.05;;
52992;SDS011;38875;52.216;21.040;2022-08-21T11:59:01;3.53;;;2.67;;
52992;SDS011;38875;52.216;21.040;2022-08-21T12:01:33;3.88;;;2.80;;
52992;SDS011;38875;52.216;21.040;2022-08-21T12:04:10;6.82;;;3.10;;
52992;SDS011;38875;52.216;21.040;2022-08-21T12:06:47;6.03;;;2.65;;
52992;SDS011;38875;52.216;21.040;2022-08-21T12:12:06;5.57;;;3.00;;
52992;SDS011;38875;52.216;21.040;2022-08-21T12:15:03;4.60;;;2.80;;
52992;SDS011;38875;52.216;21.040;2022-08-21T12:17:39;6.90;;;3.08;;
52992;SDS011;38875;52.216;21.040;2022-08-21T12:23:14;4.50;;;2.60;;
52992;SDS011;38875;52.216;21.040;2022-08-21T12:28:34;6.90;;;2.80;;
52992;SDS011;38875;52.216;21.040;2022-08-21T12:31:00;5.32;;;2.97;;
52992;SDS011;38875;52.216;21.040;2022-08-21T12:33:32;5.03;;;3.05;;
52992;SDS011;38875;52.216;21.040;2022-08-21T12:36:10;7.10;;;3.10;;
52992;SDS011;38875;52.216;21.040;2022-08-21T12:39:00;7.72;;;2.80;;
52992;SDS011;38875;52.216;21.040;2022-08-21T12:41:43;5.75;;;2.90;;
52992;SDS011;38875;52.216;21.040;2022-08-21T12:44:14;6.25;;;2.97;;
52992;SDS011;38875;52.216;21.040;2022-08-21T12:46:48;3.90;;;2.78;;
52992;SDS011;38875;52.216;21.040;2022-08-21T12:52:36;6.50;;;3.17;;
52992;SDS011;38875;52.216;21.040;2022-08-21T12:55:24;4.10;;;2.58;;
52992;SDS011;38875;52.216;21.040;2022-08-21T12:57:53;3.65;;;2.72;;
52992;SDS011;38875;52.216;21.040;2022-08-21T13:00:21;4.18;;;2.72;;
52992;SDS011;38875;52.216;21.040;2022-08-21T13:02:51;5.88;;;2.90;;
52992;SDS011;38875;52.216;21.040;2022-08-21T13:05:27;3.92;;;2.70;;
52992;SDS011;38875;52.216;21.040;2022-08-21T13:07:58;8.45;;;2.90;;
52992;SDS011;38875;52.216;21.040;2022-08-21T13:10:30;4.03;;;2.50;;
52992;SDS011;38875;52.216;21.040;2022-08-21T13:13:05;7.57;;;2.67;;
52992;SDS011;38875;52.216;21.040;2022-08-21T13:15:36;5.32;;;3.10;;
52992;SDS011;38875;52.216;21.040;2022-08-21T13:18:05;6.20;;;2.83;;
52992;SDS011;38875;52.216;21.040;2022-08-21T13:20:33;8.93;;;2.90;;
52992;SDS011;38875;52.216;21.040;2022-08-21T13:23:01;4.90;;;2.83;;
52992;SDS011;38875;52.216;21.040;2022-08-21T13:25:29;6.75;;;3.22;;
52992;SDS011;38875;52.216;21.040;2022-08-21T13:28:03;6.72;;;2.85;;
52992;SDS011;38875;52.216;21.040;2022-08-21T13:30:38;4.63;;;2.50;;
52992;SDS011;38875;52.216;21.040;2022-08-21T13:33:09;5.65;;;3.00;;
52992;SDS011;38875;52.216;21.040;2022-08-21T13:35:46;4.45;;;2.70;;
52992;SDS011;38875;52.216;21.040;2022-08-21T13:38:15;5.78;;;3.13;;
52992;SDS011;38875;52.216;21.040;2022-08-21T13:40:44;4.63;;;2.95;;
52992;SDS011;38875;52.216;21.040;2022-08-21T13:43:14;5.05;;;2.90;;
52992;SDS011;38875;52.216;21.040;2022-08-21T13:45:43;4.80;;;3.13;;
52992;SDS011;38875;52.216;21.040;2022-08-21T13:48:12;6.03;;;3.00;;
52992;SDS011;38875;52.216;21.040;2022-08-21T13:50:38;4.65;;;3.03;;
52992;SDS011;38875;52.216;21.040;2022-08-21T13:53:06;4.43;;;2.90;;
52992;SDS011;38875;52.216;21.040;2022-08-21T13:55:44;6.05;;;2.83;;
52992;SDS011;38875;52.216;21.040;2022-08-21T13:58:10;6.00;;;2.60;;
52992;SDS011;38875;52.216;21.040;2022-08-21T14:00:44;7.22;;;3.40;;
52992;SDS011;38875;52.216;21.040;2022-08-21T14:03:35;8.13;;;3.38;;
52992;SDS011;38875;52.216;21.040;2022-08-21T14:06:12;5.90;;;2.55;;
52992;SDS011;38875;52.216;21.040;2022-08-21T14:08:46;6.05;;;2.80;;
52992;SDS011;38875;52.216;21.040;2022-08-21T14:11:25;5.70;;;3.20;;
52992;SDS011;38875;52.216;21.040;2022-08-21T14:13:59;3.85;;;2.80;;
52992;SDS011;38875;52.216;21.040;2022-08-21T14:16:40;5.57;;;3.40;;
52992;SDS011;38875;52.216;21.040;2022-08-21T14:19:10;7.85;;;3.17;;
52992;SDS011;38875;52.216;21.040;2022-08-21T14:21:44;5.40;;;3.13;;
52992;SDS011;38875;52.216;21.040;2022-08-21T14:24:12;5.85;;;3.00;;
52992;SDS011;38875;52.216;21.040;2022-08-21T14:26:50;7.22;;;3.22;;
52992;SDS011;38875;52.216;21.040;2022-08-21T14:29:20;6.32;;;3.10;;
52992;SDS011;38875;52.216;21.040;2022-08-21T14:32:34;4.20;;;2.80;;
52992;SDS011;38875;52.216;21.040;2022-08-21T14:34:40;3.50;;;2.70;;
52992;SDS011;38875;52.216;21.040;2022-08-21T14:37:06;5.82;;;3.00;;
52992;SDS011;38875;52.216;21.040;2022-08-21T14:39:32;5.85;;;2.85;;
52992;SDS011;38875;52.216;21.040;2022-08-21T14:41:58;4.65;;;2.80;;
52992;SDS011;38875;52.216;21.040;2022-08-21T14:44:26;4.45;;;2.78;;
52992;SDS011;38875;52.216;21.040;2022-08-21T14:46:52;6.88;;;2.85;;
52992;SDS011;38875;52.216;21.040;2022-08-21T14:49:18;3.97;;;2.83;;
52992;SDS011;38875;52.216;21.040;2022-08-21T14:51:44;5.88;;;2.65;;
52992;SDS011;38875;52.216;21.040;2022-08-21T14:54:10;5.90;;;2.85;;
52992;SDS011;38875;52.216;21.040;2022-08-21T14:56:36;5.90;;;2.45;;
52992;SDS011;38875;52.216;21.040;2022-08-21T14:59:03;6.22;;;2.33;;
52992;SDS011;38875;52.216;21.040;2022-08-21T15:01:32;4.90;;;2.70;;
52992;SDS011;38875;52.216;21.040;2022-08-21T15:04:10;4.25;;;2.50;;
52992;SDS011;38875;52.216;21.040;2022-08-21T15:06:36;3.08;;;2.13;;
52992;SDS011;38875;52.216;21.040;2022-08-21T15:09:02;6.70;;;2.60;;
52992;SDS011;38875;52.216;21.040;2022-08-21T15:11:30;3.58;;;2.22;;
52992;SDS011;38875;52.216;21.040;2022-08-21T15:13:59;3.63;;;2.33;;
52992;SDS011;38875;52.216;21.040;2022-08-21T15:16:27;5.45;;;2.40;;
52992;SDS011;38875;52.216;21.040;2022-08-21T15:18:57;4.03;;;2.42;;
52992;SDS011;38875;52.216;21.040;2022-08-21T15:21:23;4.70;;;2.55;;
52992;SDS011;38875;52.216;21.040;2022-08-21T15:23:49;3.92;;;2.35;;
52992;SDS011;38875;52.216;21.040;2022-08-21T15:26:15;6.03;;;2.65;;
52992;SDS011;38875;52.216;21.040;2022-08-21T15:28:41;3.20;;;2.10;;
52992;SDS011;38875;52.216;21.040;2022-08-21T15:31:07;6.15;;;2.53;;
52992;SDS011;38875;52.216;21.040;2022-08-21T15:33:33;4.07;;;2.40;;
52992;SDS011;38875;52.216;21.040;2022-08-21T15:35:59;3.92;;;2.78;;
52992;SDS011;38875;52.216;21.040;2022-08-21T15:38:25;4.60;;;2.67;;
52992;SDS011;38875;52.216;21.040;2022-08-21T15:40:51;4.43;;;2.92;;
52992;SDS011;38875;52.216;21.040;2022-08-21T15:45:58;4.15;;;2.85;;
52992;SDS011;38875;52.216;21.040;2022-08-21T15:48:25;5.70;;;3.20;;
52992;SDS011;38875;52.216;21.040;2022-08-21T15:50:52;4.88;;;2.83;;
52992;SDS011;38875;52.216;21.040;2022-08-21T15:53:18;4.72;;;3.08;;
52992;SDS011;38875;52.216;21.040;2022-08-21T15:55:43;4.97;;;2.70;;
52992;SDS011;38875;52.216;21.040;2022-08-21T15:58:13;4.70;;;2.92;;
52992;SDS011;38875;52.216;21.040;2022-08-21T16:00:41;6.45;;;3.40;;